sensor_id;sensor_type;location;lat;lon;timestamp;P1;durP1;ratioP1;P2;durP2;ratioP2
67930;SDS011;63902;52.000;5.954;2022-11-11T00:00:23;5.95;;;2.65;;
67930;SDS011;63902;52.000;5.954;2022-11-11T00:01:24;6.18;;;2.50;;
67930;SDS011;63902;52.000;5.954;2022-11-11T00:02:24;7.45;;;2.65;;
67930;SDS011;63902;52.000;5.954;2022-11-11T00:03:25;7.20;;;3.10;;
67930;SDS011;63902;52.000;5.954;2022-11-11T00:04:25;5.20;;;2.58;;
67930;SDS011;63902;52.000;5.954;2022-11-11T00:05:26;4.80;;;2.40;;
67930;SDS011;63902;52.000;5.954;2022-11-11T00:06:27;4.88;;;2.67;;
67930;SDS011;63902;52.000;5.954;2022-11-11T00:07:29;3.95;;;2.30;;
67930;SDS011;63902;52.000;5.954;2022-11-11T00:08:29;6.05;;;2.60;;
67930;SDS011;63902;52.000;5.954;2022-11-11T00:09:30;9.27;;;3.05;;
67930;SDS011;63902;52.000;5.954;2022-11-11T00:10:30;4.55;;;2.83;;
67930;SDS011;63902;52.000;5.954;2022-11-11T00:11:31;6.30;;;2.53;;
67930;SDS011;63902;52.000;5.954;2022-11-11T00:12:31;5.05;;;2.67;;
67930;SDS011;63902;52.000;5.954;2022-11-11T00:13:32;4.55;;;2.60;;
67930;SDS011;63902;52.000;5.954;2022-11-11T00:14:33;5.13;;;2.17;;
67930;SDS011;63902;52.000;5.954;2022-11-11T00:15:35;8.15;;;2.67;;
67930;SDS011;63902;52.000;5.954;2022-11-11T00:16:36;6.45;;;2.60;;
67930;SDS011;63902;52.000;5.954;2022-11-11T00:17:37;4.82;;;2.30;;
67930;SDS011;63902;52.000;5.954;2022-11-11T00:18:37;9.00;;;2.53;;
67930;SDS011;63902;52.000;5.954;2022-11-11T00:19:39;5.10;;;2.78;;
67930;SDS011;63902;52.000;5.954;2022-11-11T00:20:39;5.13;;;2.67;;
67930;SDS011;63902;52.000;5.954;2022-11-11T00:21:40;4.93;;;2.63;;
67930;SDS011;63902;52.000;5.954;2022-11-11T00:22:42;4.47;;;2.53;;
67930;SDS011;63902;52.000;5.954;2022-11-11T00:23:42;5.00;;;2.60;;
67930;SDS011;63902;52.000;5.954;2022-11-11T00:24:43;5.55;;;2.70;;
67930;SDS011;63902;52.000;5.954;2022-11-11T00:25:43;7.72;;;2.72;;
67930;SDS011;63902;52.000;5.954;2022-11-11T00:26:43;4.90;;;2.40;;
67930;SDS011;63902;52.000;5.954;2022-11-11T00:27:44;4.55;;;2.60;;
67930;SDS011;63902;52.000;5.954;2022-11-11T00:28:44;7.05;;;2.78;;
67930;SDS011;63902;52.000;5.954;2022-11-11T00:29:45;4.82;;;3.03;;
67930;SDS011;63902;52.000;5.954;2022-11-11T00:30:46;7.15;;;2.88;;
67930;SDS011;63902;52.000;5.954;2022-11-11T00:31:46;8.23;;;3.25;;
67930;SDS011;63902;52.000;5.954;2022-11-11T00:32:47;6.13;;;2.88;;
67930;SDS011;63902;52.000;5.954;2022-11-11T00:33:47;6.20;;;2.67;;
67930;SDS011;63902;52.000;5.954;2022-11-11T00:34:48;5.82;;;2.63;;
67930;SDS011;63902;52.000;5.954;2022-11-11T00:35:48;5.07;;;2.45;;
67930;SDS011;63902;52.000;5.954;2022-11-11T00:36:49;5.70;;;2.63;;
67930;SDS011;63902;52.000;5.954;2022-11-11T00:37:51;8.27;;;3.15;;
67930;SDS011;63902;52.000;5.954;2022-11-11T00:38:51;4.30;;;2.67;;
67930;SDS011;63902;52.000;5.954;2022-11-11T00:39:51;4.68;;;2.65;;
67930;SDS011;63902;52.000;5.954;2022-11-11T00:40:52;4.38;;;2.85;;
67930;SDS011;63902;52.000;5.954;2022-11-11T00:41:52;5.13;;;2.85;;
67930;SDS011;63902;52.000;5.954;2022-11-11T00:42:53;5.85;;;3.00;;
67930;SDS011;63902;52.000;5.954;2022-11-11T00:43:53;3.75;;;2.50;;
67930;SDS011;63902;52.000;5.954;2022-11-11T00:44:53;6.10;;;2.80;;
67930;SDS011;63902;52.000;5.954;2022-11-11T00:45:54;6.20;;;3.10;;
67930;SDS011;63902;52.000;5.954;2022-11-11T00:46:54;6.63;;;3.25;;
67930;SDS011;63902;52.000;5.954;2022-11-11T00:47:55;5.78;;;3.58;;
67930;SDS011;63902;52.000;5.954;2022-11-11T00:48:55;5.53;;;2.97;;
67930;SDS011;63902;52.000;5.954;2022-11-11T00:49:56;4.43;;;2.80;;
67930;SDS011;63902;52.000;5.954;2022-11-11T00:50:56;4.82;;;2.65;;
67930;SDS011;63902;52.000;5.954;2022-11-11T00:51:56;4.35;;;2.90;;
67930;SDS011;63902;52.000;5.954;2022-11-11T00:52:58;6.30;;;2.90;;
67930;SDS011;63902;52.000;5.954;2022-11-11T00:53:59;5.03;;;2.85;;
67930;SDS011;63902;52.000;5.954;2022-11-11T00:54:59;5.00;;;3.10;;
67930;SDS011;63902;52.000;5.954;2022-11-11T00:56:00;5.75;;;3.03;;
67930;SDS011;63902;52.000;5.954;2022-11-11T00:57:00;6.07;;;3.45;;
67930;SDS011;63902;52.000;5.954;2022-11-11T00:58:01;4.40;;;3.17;;
67930;SDS011;63902;52.000;5.954;2022-11-11T00:59:01;8.20;;;3.28;;
67930;SDS011;63902;52.000;5.954;2022-11-11T01:00:03;5.00;;;3.25;;
67930;SDS011;63902;52.000;5.954;2022-11-11T01:01:04;6.00;;;3.28;;
67930;SDS011;63902;52.000;5.954;2022-11-11T01:02:04;5.07;;;3.15;;
67930;SDS011;63902;52.000;5.954;2022-11-11T01:03:05;5.45;;;3.13;;
67930;SDS011;63902;52.000;5.954;2022-11-11T01:04:05;4.97;;;3.10;;
67930;SDS011;63902;52.000;5.954;2022-11-11T01:05:06;4.53;;;3.50;;
67930;SDS011;63902;52.000;5.954;2022-11-11T01:06:08;6.15;;;3.70;;
67930;SDS011;63902;52.000;5.954;2022-11-11T01:07:10;5.38;;;3.30;;
67930;SDS011;63902;52.000;5.954;2022-11-11T01:08:12;4.85;;;3.30;;
67930;SDS011;63902;52.000;5.954;2022-11-11T01:09:12;6.30;;;3.30;;
67930;SDS011;63902;52.000;5.954;2022-11-11T01:10:12;7.43;;;4.03;;
67930;SDS011;63902;52.000;5.954;2022-11-11T01:11:14;6.07;;;3.70;;
67930;SDS011;63902;52.000;5.954;2022-11-11T01:12:15;4.30;;;3.20;;
67930;SDS011;63902;52.000;5.954;2022-11-11T01:13:16;4.93;;;3.50;;
67930;SDS011;63902;52.000;5.954;2022-11-11T01:14:18;7.22;;;3.50;;
67930;SDS011;63902;52.000;5.954;2022-11-11T01:15:18;6.47;;;3.38;;
67930;SDS011;63902;52.000;5.954;2022-11-11T01:16:19;5.20;;;3.45;;
67930;SDS011;63902;52.000;5.954;2022-11-11T01:17:21;5.65;;;3.13;;
67930;SDS011;63902;52.000;5.954;2022-11-11T01:18:23;4.70;;;3.50;;
67930;SDS011;63902;52.000;5.954;2022-11-11T01:19:24;4.80;;;3.35;;
67930;SDS011;63902;52.000;5.954;2022-11-11T01:20:25;8.55;;;3.97;;
67930;SDS011;63902;52.000;5.954;2022-11-11T01:21:25;7.28;;;3.40;;
67930;SDS011;63902;52.000;5.954;2022-11-11T01:22:27;5.53;;;3.63;;
67930;SDS011;63902;52.000;5.954;2022-11-11T01:23:29;4.55;;;3.28;;
67930;SDS011;63902;52.000;5.954;2022-11-11T01:24:31;6.93;;;4.18;;
67930;SDS011;63902;52.000;5.954;2022-11-11T01:25:32;5.60;;;3.90;;
67930;SDS011;63902;52.000;5.954;2022-11-11T01:26:32;6.55;;;3.90;;
67930;SDS011;63902;52.000;5.954;2022-11-11T01:27:33;5.20;;;3.78;;
67930;SDS011;63902;52.000;5.954;2022-11-11T01:28:33;5.78;;;3.75;;
67930;SDS011;63902;52.000;5.954;2022-11-11T01:29:34;6.20;;;3.72;;
67930;SDS011;63902;52.000;5.954;2022-11-11T01:30:34;5.53;;;3.72;;
67930;SDS011;63902;52.000;5.954;2022-11-11T01:31:35;5.20;;;3.78;;
67930;SDS011;63902;52.000;5.954;2022-11-11T01:32:35;4.35;;;3.47;;
67930;SDS011;63902;52.000;5.954;2022-11-11T01:33:36;6.80;;;4.00;;
67930;SDS011;63902;52.000;5.954;2022-11-11T01:34:37;7.93;;;4.53;;
67930;SDS011;63902;52.000;5.954;2022-11-11T01:35:37;6.38;;;3.95;;
67930;SDS011;63902;52.000;5.954;2022-11-11T01:36:38;5.35;;;3.83;;
67930;SDS011;63902;52.000;5.954;2022-11-11T01:37:39;6.10;;;3.72;;
67930;SDS011;63902;52.000;5.954;2022-11-11T01:38:40;6.25;;;4.10;;
67930;SDS011;63902;52.000;5.954;2022-11-11T01:39:41;6.20;;;3.90;;
67930;SDS011;63902;52.000;5.954;2022-11-11T01:40:42;9.52;;;4.38;;
67930;SDS011;63902;52.000;5.954;2022-11-11T01:41:43;6.15;;;3.60;;
67930;SDS011;63902;52.000;5.954;2022-11-11T01:42:50;5.82;;;3.92;;
67930;SDS011;63902;52.000;5.954;2022-11-11T01:43:52;7.63;;;4.18;;
67930;SDS011;63902;52.000;5.954;2022-11-11T01:44:53;5.15;;;4.05;;
67930;SDS011;63902;52.000;5.954;2022-11-11T01:45:54;6.57;;;3.97;;
67930;SDS011;63902;52.000;5.954;2022-11-11T01:46:56;7.22;;;4.13;;
67930;SDS011;63902;52.000;5.954;2022-11-11T01:47:59;5.93;;;3.60;;
67930;SDS011;63902;52.000;5.954;2022-11-11T01:49:01;8.55;;;4.40;;
67930;SDS011;63902;52.000;5.954;2022-11-11T01:50:13;6.55;;;3.90;;
67930;SDS011;63902;52.000;5.954;2022-11-11T01:51:15;8.48;;;4.25;;
67930;SDS011;63902;52.000;5.954;2022-11-11T01:52:20;5.60;;;4.45;;
67930;SDS011;63902;52.000;5.954;2022-11-11T01:53:25;5.40;;;4.25;;
67930;SDS011;63902;52.000;5.954;2022-11-11T01:54:28;6.78;;;4.10;;
67930;SDS011;63902;52.000;5.954;2022-11-11T01:55:33;5.03;;;3.85;;
67930;SDS011;63902;52.000;5.954;2022-11-11T01:56:34;5.47;;;4.38;;
67930;SDS011;63902;52.000;5.954;2022-11-11T01:57:36;7.68;;;4.32;;
67930;SDS011;63902;52.000;5.954;2022-11-11T01:58:39;6.43;;;4.28;;
67930;SDS011;63902;52.000;5.954;2022-11-11T01:59:40;5.43;;;4.22;;
67930;SDS011;63902;52.000;5.954;2022-11-11T02:00:43;7.07;;;4.28;;
67930;SDS011;63902;52.000;5.954;2022-11-11T02:01:43;6.97;;;4.13;;
67930;SDS011;63902;52.000;5.954;2022-11-11T02:02:45;5.63;;;4.30;;
67930;SDS011;63902;52.000;5.954;2022-11-11T02:03:50;6.75;;;4.45;;
67930;SDS011;63902;52.000;5.954;2022-11-11T02:04:53;6.00;;;4.40;;
67930;SDS011;63902;52.000;5.954;2022-11-11T02:05:54;6.00;;;4.43;;
67930;SDS011;63902;52.000;5.954;2022-11-11T02:06:56;6.70;;;4.50;;
67930;SDS011;63902;52.000;5.954;2022-11-11T02:08:01;6.32;;;4.30;;
67930;SDS011;63902;52.000;5.954;2022-11-11T02:09:06;6.57;;;4.55;;
67930;SDS011;63902;52.000;5.954;2022-11-11T02:10:08;7.30;;;4.57;;
67930;SDS011;63902;52.000;5.954;2022-11-11T02:11:10;6.93;;;4.35;;
67930;SDS011;63902;52.000;5.954;2022-11-11T02:12:13;6.50;;;4.40;;
67930;SDS011;63902;52.000;5.954;2022-11-11T02:13:14;6.47;;;4.80;;
67930;SDS011;63902;52.000;5.954;2022-11-11T02:14:15;7.05;;;4.65;;
67930;SDS011;63902;52.000;5.954;2022-11-11T02:15:15;8.32;;;4.22;;
67930;SDS011;63902;52.000;5.954;2022-11-11T02:16:16;8.23;;;4.70;;
67930;SDS011;63902;52.000;5.954;2022-11-11T02:17:17;7.72;;;4.75;;
67930;SDS011;63902;52.000;5.954;2022-11-11T02:18:17;5.90;;;4.30;;
67930;SDS011;63902;52.000;5.954;2022-11-11T02:19:19;7.90;;;4.88;;
67930;SDS011;63902;52.000;5.954;2022-11-11T02:20:31;6.10;;;4.38;;
67930;SDS011;63902;52.000;5.954;2022-11-11T02:21:35;11.75;;;4.50;;
67930;SDS011;63902;52.000;5.954;2022-11-11T02:22:44;5.82;;;4.70;;
67930;SDS011;63902;52.000;5.954;2022-11-11T02:23:54;9.02;;;4.75;;
67930;SDS011;63902;52.000;5.954;2022-11-11T02:25:01;6.57;;;4.18;;
67930;SDS011;63902;52.000;5.954;2022-11-11T02:26:04;7.13;;;4.60;;
67930;SDS011;63902;52.000;5.954;2022-11-11T02:27:09;5.65;;;4.70;;
67930;SDS011;63902;52.000;5.954;2022-11-11T02:28:13;8.02;;;4.80;;
67930;SDS011;63902;52.000;5.954;2022-11-11T02:29:16;5.82;;;4.63;;
67930;SDS011;63902;52.000;5.954;2022-11-11T02:30:19;7.03;;;4.45;;
67930;SDS011;63902;52.000;5.954;2022-11-11T02:31:23;6.28;;;4.80;;
67930;SDS011;63902;52.000;5.954;2022-11-11T02:32:26;7.25;;;4.40;;
67930;SDS011;63902;52.000;5.954;2022-11-11T02:33:27;6.70;;;4.95;;
67930;SDS011;63902;52.000;5.954;2022-11-11T02:34:28;6.43;;;4.57;;
67930;SDS011;63902;52.000;5.954;2022-11-11T02:35:30;6.88;;;4.63;;
67930;SDS011;63902;52.000;5.954;2022-11-11T02:36:32;9.45;;;4.93;;
67930;SDS011;63902;52.000;5.954;2022-11-11T02:37:33;9.18;;;4.47;;
67930;SDS011;63902;52.000;5.954;2022-11-11T02:38:33;6.82;;;5.00;;
67930;SDS011;63902;52.000;5.954;2022-11-11T02:39:36;6.82;;;4.63;;
67930;SDS011;63902;52.000;5.954;2022-11-11T02:40:42;6.47;;;4.50;;
67930;SDS011;63902;52.000;5.954;2022-11-11T02:41:46;5.97;;;4.75;;
67930;SDS011;63902;52.000;5.954;2022-11-11T02:42:46;7.43;;;4.63;;
67930;SDS011;63902;52.000;5.954;2022-11-11T02:43:47;6.97;;;4.78;;
67930;SDS011;63902;52.000;5.954;2022-11-11T02:44:47;7.03;;;4.55;;
67930;SDS011;63902;52.000;5.954;2022-11-11T02:45:48;5.60;;;4.35;;
67930;SDS011;63902;52.000;5.954;2022-11-11T02:46:48;11.10;;;5.10;;
67930;SDS011;63902;52.000;5.954;2022-11-11T02:47:49;6.38;;;4.65;;
67930;SDS011;63902;52.000;5.954;2022-11-11T02:48:49;8.98;;;4.97;;
67930;SDS011;63902;52.000;5.954;2022-11-11T02:49:49;9.18;;;4.72;;
67930;SDS011;63902;52.000;5.954;2022-11-11T02:50:50;10.68;;;4.93;;
67930;SDS011;63902;52.000;5.954;2022-11-11T02:51:50;6.07;;;4.68;;
67930;SDS011;63902;52.000;5.954;2022-11-11T02:52:51;5.88;;;4.50;;
67930;SDS011;63902;52.000;5.954;2022-11-11T02:53:51;6.75;;;4.30;;
67930;SDS011;63902;52.000;5.954;2022-11-11T02:54:53;6.20;;;4.30;;
67930;SDS011;63902;52.000;5.954;2022-11-11T02:55:54;8.38;;;4.53;;
67930;SDS011;63902;52.000;5.954;2022-11-11T02:56:54;5.60;;;4.00;;
67930;SDS011;63902;52.000;5.954;2022-11-11T02:57:55;9.80;;;4.38;;
67930;SDS011;63902;52.000;5.954;2022-11-11T02:58:55;6.53;;;4.70;;
67930;SDS011;63902;52.000;5.954;2022-11-11T02:59:56;9.25;;;4.50;;
67930;SDS011;63902;52.000;5.954;2022-11-11T03:00:58;8.15;;;4.88;;
67930;SDS011;63902;52.000;5.954;2022-11-11T03:01:59;8.25;;;4.65;;
67930;SDS011;63902;52.000;5.954;2022-11-11T03:02:59;6.18;;;4.43;;
67930;SDS011;63902;52.000;5.954;2022-11-11T03:03:59;7.95;;;5.18;;
67930;SDS011;63902;52.000;5.954;2022-11-11T03:05:00;6.72;;;4.65;;
67930;SDS011;63902;52.000;5.954;2022-11-11T03:06:00;6.20;;;4.60;;
67930;SDS011;63902;52.000;5.954;2022-11-11T03:07:01;9.93;;;4.57;;
67930;SDS011;63902;52.000;5.954;2022-11-11T03:08:02;6.95;;;4.70;;
67930;SDS011;63902;52.000;5.954;2022-11-11T03:09:03;5.60;;;4.45;;
67930;SDS011;63902;52.000;5.954;2022-11-11T03:10:06;7.30;;;4.75;;
67930;SDS011;63902;52.000;5.954;2022-11-11T03:11:07;6.47;;;5.00;;
67930;SDS011;63902;52.000;5.954;2022-11-11T03:12:07;5.53;;;3.55;;
67930;SDS011;63902;52.000;5.954;2022-11-11T03:13:08;7.32;;;4.80;;
67930;SDS011;63902;52.000;5.954;2022-11-11T03:14:08;6.68;;;4.45;;
67930;SDS011;63902;52.000;5.954;2022-11-11T03:15:09;7.82;;;4.78;;
67930;SDS011;63902;52.000;5.954;2022-11-11T03:16:09;7.20;;;4.80;;
67930;SDS011;63902;52.000;5.954;2022-11-11T03:17:10;11.85;;;4.80;;
67930;SDS011;63902;52.000;5.954;2022-11-11T03:18:11;5.30;;;4.20;;
67930;SDS011;63902;52.000;5.954;2022-11-11T03:19:11;6.40;;;4.63;;
67930;SDS011;63902;52.000;5.954;2022-11-11T03:20:12;6.57;;;4.38;;
67930;SDS011;63902;52.000;5.954;2022-11-11T03:21:13;8.00;;;4.38;;
67930;SDS011;63902;52.000;5.954;2022-11-11T03:22:14;5.68;;;4.68;;
67930;SDS011;63902;52.000;5.954;2022-11-11T03:23:14;8.45;;;4.82;;
67930;SDS011;63902;52.000;5.954;2022-11-11T03:24:15;5.10;;;3.83;;
67930;SDS011;63902;52.000;5.954;2022-11-11T03:25:17;6.80;;;4.60;;
67930;SDS011;63902;52.000;5.954;2022-11-11T03:26:17;6.32;;;4.70;;
67930;SDS011;63902;52.000;5.954;2022-11-11T03:27:17;7.03;;;4.88;;
67930;SDS011;63902;52.000;5.954;2022-11-11T03:28:19;9.68;;;4.35;;
67930;SDS011;63902;52.000;5.954;2022-11-11T03:29:20;6.40;;;4.22;;
67930;SDS011;63902;52.000;5.954;2022-11-11T03:30:20;6.38;;;4.35;;
67930;SDS011;63902;52.000;5.954;2022-11-11T03:31:21;5.93;;;3.95;;
67930;SDS011;63902;52.000;5.954;2022-11-11T03:32:22;6.50;;;4.22;;
67930;SDS011;63902;52.000;5.954;2022-11-11T03:33:22;6.95;;;4.28;;
67930;SDS011;63902;52.000;5.954;2022-11-11T03:34:22;6.05;;;4.70;;
67930;SDS011;63902;52.000;5.954;2022-11-11T03:35:23;8.45;;;4.57;;
67930;SDS011;63902;52.000;5.954;2022-11-11T03:36:23;5.90;;;4.07;;
67930;SDS011;63902;52.000;5.954;2022-11-11T03:37:24;7.65;;;3.90;;
67930;SDS011;63902;52.000;5.954;2022-11-11T03:38:24;8.82;;;4.47;;
67930;SDS011;63902;52.000;5.954;2022-11-11T03:39:24;8.10;;;4.40;;
67930;SDS011;63902;52.000;5.954;2022-11-11T03:40:26;7.75;;;4.00;;
67930;SDS011;63902;52.000;5.954;2022-11-11T03:41:27;7.13;;;4.50;;
67930;SDS011;63902;52.000;5.954;2022-11-11T03:42:27;7.32;;;4.47;;
67930;SDS011;63902;52.000;5.954;2022-11-11T03:43:28;6.93;;;4.15;;
67930;SDS011;63902;52.000;5.954;2022-11-11T03:44:29;6.93;;;3.90;;
67930;SDS011;63902;52.000;5.954;2022-11-11T03:45:30;8.63;;;4.50;;
67930;SDS011;63902;52.000;5.954;2022-11-11T03:46:30;8.98;;;4.82;;
67930;SDS011;63902;52.000;5.954;2022-11-11T03:47:31;5.43;;;4.03;;
67930;SDS011;63902;52.000;5.954;2022-11-11T03:48:32;10.52;;;4.32;;
67930;SDS011;63902;52.000;5.954;2022-11-11T03:49:33;6.88;;;4.20;;
67930;SDS011;63902;52.000;5.954;2022-11-11T03:50:34;6.57;;;4.38;;
67930;SDS011;63902;52.000;5.954;2022-11-11T03:51:34;5.13;;;4.60;;
67930;SDS011;63902;52.000;5.954;2022-11-11T03:52:34;8.57;;;4.00;;
67930;SDS011;63902;52.000;5.954;2022-11-11T03:53:39;8.52;;;4.65;;
67930;SDS011;63902;52.000;5.954;2022-11-11T03:54:40;6.05;;;4.20;;
67930;SDS011;63902;52.000;5.954;2022-11-11T03:55:42;5.60;;;4.00;;
67930;SDS011;63902;52.000;5.954;2022-11-11T03:56:42;5.60;;;4.20;;
67930;SDS011;63902;52.000;5.954;2022-11-11T03:57:43;5.85;;;4.07;;
67930;SDS011;63902;52.000;5.954;2022-11-11T03:58:45;6.40;;;3.85;;
67930;SDS011;63902;52.000;5.954;2022-11-11T03:59:45;6.18;;;4.40;;
67930;SDS011;63902;52.000;5.954;2022-11-11T04:00:46;4.68;;;3.88;;
67930;SDS011;63902;52.000;5.954;2022-11-11T04:01:46;6.43;;;4.30;;
67930;SDS011;63902;52.000;5.954;2022-11-11T04:02:46;4.82;;;4.28;;
67930;SDS011;63902;52.000;5.954;2022-11-11T04:03:47;6.53;;;4.00;;
67930;SDS011;63902;52.000;5.954;2022-11-11T04:04:47;9.18;;;4.38;;
67930;SDS011;63902;52.000;5.954;2022-11-11T04:05:48;6.53;;;3.85;;
67930;SDS011;63902;52.000;5.954;2022-11-11T04:06:48;7.00;;;4.05;;
67930;SDS011;63902;52.000;5.954;2022-11-11T04:07:49;8.82;;;4.28;;
67930;SDS011;63902;52.000;5.954;2022-11-11T04:08:50;5.38;;;4.03;;
67930;SDS011;63902;52.000;5.954;2022-11-11T04:09:50;6.70;;;3.85;;
67930;SDS011;63902;52.000;5.954;2022-11-11T04:10:52;7.22;;;4.38;;
67930;SDS011;63902;52.000;5.954;2022-11-11T04:11:53;7.53;;;4.00;;
67930;SDS011;63902;52.000;5.954;2022-11-11T04:12:53;6.10;;;4.00;;
67930;SDS011;63902;52.000;5.954;2022-11-11T04:13:55;5.57;;;4.25;;
67930;SDS011;63902;52.000;5.954;2022-11-11T04:14:58;6.90;;;4.00;;
67930;SDS011;63902;52.000;5.954;2022-11-11T04:15:58;5.07;;;3.72;;
67930;SDS011;63902;52.000;5.954;2022-11-11T04:16:59;6.82;;;4.35;;
67930;SDS011;63902;52.000;5.954;2022-11-11T04:17:59;5.40;;;4.00;;
67930;SDS011;63902;52.000;5.954;2022-11-11T04:18:59;4.13;;;3.70;;
67930;SDS011;63902;52.000;5.954;2022-11-11T04:20:00;6.90;;;3.78;;
67930;SDS011;63902;52.000;5.954;2022-11-11T04:21:01;5.60;;;3.83;;
67930;SDS011;63902;52.000;5.954;2022-11-11T04:22:01;8.40;;;4.40;;
67930;SDS011;63902;52.000;5.954;2022-11-11T04:23:02;5.70;;;3.75;;
67930;SDS011;63902;52.000;5.954;2022-11-11T04:24:03;8.27;;;4.43;;
67930;SDS011;63902;52.000;5.954;2022-11-11T04:25:04;6.53;;;3.72;;
67930;SDS011;63902;52.000;5.954;2022-11-11T04:26:06;6.00;;;4.00;;
67930;SDS011;63902;52.000;5.954;2022-11-11T04:27:08;5.97;;;4.15;;
67930;SDS011;63902;52.000;5.954;2022-11-11T04:28:09;6.85;;;3.72;;
67930;SDS011;63902;52.000;5.954;2022-11-11T04:29:10;8.57;;;4.18;;
67930;SDS011;63902;52.000;5.954;2022-11-11T04:30:10;5.80;;;3.75;;
67930;SDS011;63902;52.000;5.954;2022-11-11T04:31:11;6.43;;;3.83;;
67930;SDS011;63902;52.000;5.954;2022-11-11T04:32:12;5.53;;;3.97;;
67930;SDS011;63902;52.000;5.954;2022-11-11T04:33:13;6.65;;;4.40;;
67930;SDS011;63902;52.000;5.954;2022-11-11T04:34:14;6.05;;;4.07;;
67930;SDS011;63902;52.000;5.954;2022-11-11T04:35:14;7.03;;;3.85;;
67930;SDS011;63902;52.000;5.954;2022-11-11T04:36:15;6.25;;;4.10;;
67930;SDS011;63902;52.000;5.954;2022-11-11T04:37:15;6.10;;;4.00;;
67930;SDS011;63902;52.000;5.954;2022-11-11T04:38:16;5.30;;;3.72;;
67930;SDS011;63902;52.000;5.954;2022-11-11T04:39:17;5.45;;;3.72;;
67930;SDS011;63902;52.000;5.954;2022-11-11T04:40:17;4.82;;;3.78;;
67930;SDS011;63902;52.000;5.954;2022-11-11T04:41:19;6.00;;;3.97;;
67930;SDS011;63902;52.000;5.954;2022-11-11T04:42:20;5.90;;;3.67;;
67930;SDS011;63902;52.000;5.954;2022-11-11T04:43:21;4.20;;;3.17;;
67930;SDS011;63902;52.000;5.954;2022-11-11T04:44:21;6.68;;;3.90;;
67930;SDS011;63902;52.000;5.954;2022-11-11T04:45:22;4.88;;;3.80;;
67930;SDS011;63902;52.000;5.954;2022-11-11T04:46:22;4.28;;;3.60;;
67930;SDS011;63902;52.000;5.954;2022-11-11T04:47:22;7.85;;;3.70;;
67930;SDS011;63902;52.000;5.954;2022-11-11T04:48:23;8.02;;;4.05;;
67930;SDS011;63902;52.000;5.954;2022-11-11T04:49:23;6.07;;;3.55;;
67930;SDS011;63902;52.000;5.954;2022-11-11T04:50:24;4.45;;;3.63;;
67930;SDS011;63902;52.000;5.954;2022-11-11T04:51:26;6.38;;;3.90;;
67930;SDS011;63902;52.000;5.954;2022-11-11T04:52:27;5.38;;;3.67;;
67930;SDS011;63902;52.000;5.954;2022-11-11T04:53:28;6.38;;;3.65;;
67930;SDS011;63902;52.000;5.954;2022-11-11T04:54:28;8.25;;;4.05;;
67930;SDS011;63902;52.000;5.954;2022-11-11T04:55:28;7.13;;;4.07;;
67930;SDS011;63902;52.000;5.954;2022-11-11T04:56:30;7.90;;;3.88;;
67930;SDS011;63902;52.000;5.954;2022-11-11T04:57:31;5.53;;;3.33;;
67930;SDS011;63902;52.000;5.954;2022-11-11T04:58:32;6.18;;;3.72;;
67930;SDS011;63902;52.000;5.954;2022-11-11T04:59:34;5.13;;;4.13;;
67930;SDS011;63902;52.000;5.954;2022-11-11T05:00:34;5.93;;;3.70;;
67930;SDS011;63902;52.000;5.954;2022-11-11T05:01:35;5.25;;;3.85;;
67930;SDS011;63902;52.000;5.954;2022-11-11T05:02:36;4.82;;;3.22;;
67930;SDS011;63902;52.000;5.954;2022-11-11T05:03:36;7.63;;;4.00;;
67930;SDS011;63902;52.000;5.954;2022-11-11T05:04:37;8.00;;;3.90;;
67930;SDS011;63902;52.000;5.954;2022-11-11T05:05:37;6.05;;;4.00;;
67930;SDS011;63902;52.000;5.954;2022-11-11T05:06:38;7.22;;;4.15;;
67930;SDS011;63902;52.000;5.954;2022-11-11T05:07:38;6.78;;;3.75;;
67930;SDS011;63902;52.000;5.954;2022-11-11T05:08:40;5.63;;;3.80;;
67930;SDS011;63902;52.000;5.954;2022-11-11T05:09:41;3.72;;;3.38;;
67930;SDS011;63902;52.000;5.954;2022-11-11T05:10:42;5.57;;;3.88;;
67930;SDS011;63902;52.000;5.954;2022-11-11T05:11:43;7.10;;;4.10;;
67930;SDS011;63902;52.000;5.954;2022-11-11T05:12:45;5.75;;;3.60;;
67930;SDS011;63902;52.000;5.954;2022-11-11T05:13:46;6.03;;;4.10;;
67930;SDS011;63902;52.000;5.954;2022-11-11T05:14:46;4.85;;;3.40;;
67930;SDS011;63902;52.000;5.954;2022-11-11T05:15:46;7.85;;;3.80;;
67930;SDS011;63902;52.000;5.954;2022-11-11T05:16:48;5.32;;;3.47;;
67930;SDS011;63902;52.000;5.954;2022-11-11T05:17:50;8.13;;;4.07;;
67930;SDS011;63902;52.000;5.954;2022-11-11T05:18:50;6.32;;;3.50;;
67930;SDS011;63902;52.000;5.954;2022-11-11T05:19:50;6.85;;;3.78;;
67930;SDS011;63902;52.000;5.954;2022-11-11T05:20:51;6.57;;;4.00;;
67930;SDS011;63902;52.000;5.954;2022-11-11T05:21:51;4.43;;;3.35;;
67930;SDS011;63902;52.000;5.954;2022-11-11T05:22:54;5.85;;;4.18;;
67930;SDS011;63902;52.000;5.954;2022-11-11T05:23:55;6.22;;;3.83;;
67930;SDS011;63902;52.000;5.954;2022-11-11T05:24:55;5.15;;;3.50;;
67930;SDS011;63902;52.000;5.954;2022-11-11T05:25:56;4.28;;;3.63;;
67930;SDS011;63902;52.000;5.954;2022-11-11T05:26:58;5.95;;;3.45;;
67930;SDS011;63902;52.000;5.954;2022-11-11T05:27:58;4.43;;;3.38;;
67930;SDS011;63902;52.000;5.954;2022-11-11T05:28:59;6.82;;;4.00;;
67930;SDS011;63902;52.000;5.954;2022-11-11T05:29:59;5.35;;;3.50;;
67930;SDS011;63902;52.000;5.954;2022-11-11T05:31:00;7.20;;;3.80;;
67930;SDS011;63902;52.000;5.954;2022-11-11T05:32:00;4.70;;;3.55;;
67930;SDS011;63902;52.000;5.954;2022-11-11T05:33:01;5.95;;;3.33;;
67930;SDS011;63902;52.000;5.954;2022-11-11T05:34:01;4.70;;;3.50;;
67930;SDS011;63902;52.000;5.954;2022-11-11T05:35:02;7.35;;;3.95;;
67930;SDS011;63902;52.000;5.954;2022-11-11T05:36:03;6.53;;;3.33;;
67930;SDS011;63902;52.000;5.954;2022-11-11T05:37:03;6.57;;;3.35;;
67930;SDS011;63902;52.000;5.954;2022-11-11T05:38:04;6.28;;;3.58;;
67930;SDS011;63902;52.000;5.954;2022-11-11T05:39:04;5.47;;;3.60;;
67930;SDS011;63902;52.000;5.954;2022-11-11T05:40:05;5.35;;;3.55;;
67930;SDS011;63902;52.000;5.954;2022-11-11T05:41:07;5.47;;;3.90;;
67930;SDS011;63902;52.000;5.954;2022-11-11T05:42:09;6.32;;;3.42;;
67930;SDS011;63902;52.000;5.954;2022-11-11T05:43:10;6.68;;;3.55;;
67930;SDS011;63902;52.000;5.954;2022-11-11T05:44:10;5.07;;;3.53;;
67930;SDS011;63902;52.000;5.954;2022-11-11T05:45:11;4.30;;;3.20;;
67930;SDS011;63902;52.000;5.954;2022-11-11T05:46:11;5.47;;;4.00;;
67930;SDS011;63902;52.000;5.954;2022-11-11T05:47:12;6.95;;;3.55;;
67930;SDS011;63902;52.000;5.954;2022-11-11T05:48:12;6.13;;;3.55;;
67930;SDS011;63902;52.000;5.954;2022-11-11T05:49:13;4.95;;;3.10;;
67930;SDS011;63902;52.000;5.954;2022-11-11T05:50:13;5.03;;;3.30;;
67930;SDS011;63902;52.000;5.954;2022-11-11T05:51:14;5.07;;;3.78;;
67930;SDS011;63902;52.000;5.954;2022-11-11T05:52:15;7.13;;;3.65;;
67930;SDS011;63902;52.000;5.954;2022-11-11T05:53:16;5.65;;;3.45;;
67930;SDS011;63902;52.000;5.954;2022-11-11T05:54:16;5.07;;;3.38;;
67930;SDS011;63902;52.000;5.954;2022-11-11T05:55:17;4.32;;;3.15;;
67930;SDS011;63902;52.000;5.954;2022-11-11T05:56:17;5.65;;;3.35;;
67930;SDS011;63902;52.000;5.954;2022-11-11T05:57:19;5.45;;;3.55;;
67930;SDS011;63902;52.000;5.954;2022-11-11T05:58:19;4.90;;;3.25;;
67930;SDS011;63902;52.000;5.954;2022-11-11T05:59:20;5.40;;;3.35;;
67930;SDS011;63902;52.000;5.954;2022-11-11T06:00:20;6.20;;;3.38;;
67930;SDS011;63902;52.000;5.954;2022-11-11T06:01:21;3.90;;;3.40;;
67930;SDS011;63902;52.000;5.954;2022-11-11T06:02:22;5.80;;;3.70;;
67930;SDS011;63902;52.000;5.954;2022-11-11T06:03:22;5.00;;;3.63;;
67930;SDS011;63902;52.000;5.954;2022-11-11T06:04:23;4.03;;;3.15;;
67930;SDS011;63902;52.000;5.954;2022-11-11T06:05:23;3.80;;;3.10;;
67930;SDS011;63902;52.000;5.954;2022-11-11T06:06:24;8.80;;;3.70;;
67930;SDS011;63902;52.000;5.954;2022-11-11T06:07:24;4.38;;;3.28;;
67930;SDS011;63902;52.000;5.954;2022-11-11T06:08:25;5.35;;;3.30;;